Hlavní strana
METAR-TAF:

METAR-TAF

Letiště :

Lima, Ohio, Spojené státy americké

zeměpisná šířka: 40-42-29N, zeměpisná délka: 084-01-17W, výška: 297 m

Aktuální stav počasí

Zpráva byla vytvořena před 13 minutami, v 01:53 UTC
Bezvětří
Teplota 3°C
Vlhkost vzduchu 87%
Tlak 1014 hPa
Viditelnost: 14.5 km
Oblačno až skoro zataženo ve výšce 5500 ft
Oblačno až skoro zataženo ve výšce 7500 ft

METAR: KAOH 200153Z AUTO 00000KT 9SM BKN055 BKN075 03/01 A2993 RMK AO2 SLP140 T00280011

Čas: 21:06 (02:06 UTC)


TAF: chybějící

Stav a předpovědi počasí z více než 4 000 letišť (zprávy METAR a TAF).

Červené a žluté tečky na mapě představují dostupné meteorologické stanice.

Když kurzor umístíte na tečku, zobrazí se název stanice.

Pak kliknutím zobrazíte stav a předpověď počasí.

Chcete-li změnit mapu, kliknutím na zelené tlačítko se znaménkem +mapu přiblížíte, kliknutím na zelené tlačítko se znaménkem – mapu oddálíte a kliknutím na zelené šipky přejdete na sousední mapy.


METAR-TAF: